Terminal Aerodrome Forecast
Issued by NWS Jackson, MS

Home | Current Version | Previous Version | Text Only | Print | Product List | Glossary On
Versions: 1 2 3 4 5 6 7 8 9 10 11 12 13 14 15
000
FTUS44 KMEG 011100
TAFTUP
TAF
KTUP 011128Z 0112/0212 20004KT 5SM BR SCT100
     FM011400 22010KT P6SM SCT035 SCT250
     FM020100 19005KT P6SM SCT250=

USA.gov is the U.S. government's official web portal to all federal, state and local government web resources and services.